sensor_id;sensor_type;location;lat;lon;timestamp;temperature;humidity
7427;DHT22;3755;59.316;18.092;2022-12-10T00:00:39;-4.50;99.90
7427;DHT22;3755;59.316;18.092;2022-12-10T00:07:12;-4.40;99.90
7427;DHT22;3755;59.316;18.092;2022-12-10T00:09:57;-4.40;99.90
7427;DHT22;3755;59.316;18.092;2022-12-10T00:12:40;-5.10;99.90
7427;DHT22;3755;59.316;18.092;2022-12-10T00:15:41;-5.50;99.90
7427;DHT22;3755;59.316;18.092;2022-12-10T00:18:36;-4.40;99.90
7427;DHT22;3755;59.316;18.092;2022-12-10T00:21:24;-4.30;99.90
7427;DHT22;3755;59.316;18.092;2022-12-10T00:30:19;-4.30;99.90
7427;DHT22;3755;59.316;18.092;2022-12-10T00:33:09;-4.30;99.90
7427;DHT22;3755;59.316;18.092;2022-12-10T00:36:07;-4.30;99.90
7427;DHT22;3755;59.316;18.092;2022-12-10T00:38:45;-4.30;99.90
7427;DHT22;3755;59.316;18.092;2022-12-10T00:41:26;-4.30;99.90
7427;DHT22;3755;59.316;18.092;2022-12-10T00:44:08;-4.70;99.90
7427;DHT22;3755;59.316;18.092;2022-12-10T01:12:52;-4.30;99.90
7427;DHT22;3755;59.316;18.092;2022-12-10T01:15:37;-4.30;99.90
7427;DHT22;3755;59.316;18.092;2022-12-10T01:18:08;-4.20;99.90
7427;DHT22;3755;59.316;18.092;2022-12-10T01:20:36;-4.20;99.90
7427;DHT22;3755;59.316;18.092;2022-12-10T01:23:20;-4.10;99.90
7427;DHT22;3755;59.316;18.092;2022-12-10T01:26:03;-4.10;99.90
7427;DHT22;3755;59.316;18.092;2022-12-10T01:28:47;-4.00;99.90
7427;DHT22;3755;59.316;18.092;2022-12-10T01:31:31;-4.00;99.90
7427;DHT22;3755;59.316;18.092;2022-12-10T01:34:16;-3.90;99.90
7427;DHT22;3755;59.316;18.092;2022-12-10T01:36:59;-3.90;99.90
7427;DHT22;3755;59.316;18.092;2022-12-10T01:39:34;-3.80;99.90
7427;DHT22;3755;59.316;18.092;2022-12-10T01:42:18;-3.80;99.90
7427;DHT22;3755;59.316;18.092;2022-12-10T01:51:40;-3.90;99.90
7427;DHT22;3755;59.316;18.092;2022-12-10T01:54:27;-3.90;99.90
7427;DHT22;3755;59.316;18.092;2022-12-10T01:57:13;-3.80;99.90
7427;DHT22;3755;59.316;18.092;2022-12-10T01:59:53;-3.80;99.90
7427;DHT22;3755;59.316;18.092;2022-12-10T02:02:33;-3.90;99.90
7427;DHT22;3755;59.316;18.092;2022-12-10T02:05:23;-3.90;99.90
7427;DHT22;3755;59.316;18.092;2022-12-10T02:08:13;-3.90;99.90
7427;DHT22;3755;59.316;18.092;2022-12-10T02:11:02;-3.80;99.90
7427;DHT22;3755;59.316;18.092;2022-12-10T02:13:49;-3.80;99.90
7427;DHT22;3755;59.316;18.092;2022-12-10T02:16:38;-3.70;99.90
7427;DHT22;3755;59.316;18.092;2022-12-10T02:19:31;-3.60;99.90
7427;DHT22;3755;59.316;18.092;2022-12-10T02:22:06;-3.60;99.90
7427;DHT22;3755;59.316;18.092;2022-12-10T02:25:08;-3.60;99.90
7427;DHT22;3755;59.316;18.092;2022-12-10T02:27:49;-3.60;99.90
7427;DHT22;3755;59.316;18.092;2022-12-10T02:30:56;-3.60;99.90
7427;DHT22;3755;59.316;18.092;2022-12-10T02:33:48;-3.40;99.90
7427;DHT22;3755;59.316;18.092;2022-12-10T02:36:33;-3.50;99.90
7427;DHT22;3755;59.316;18.092;2022-12-10T02:39:14;-3.50;99.90
7427;DHT22;3755;59.316;18.092;2022-12-10T02:41:59;-3.50;99.90
7427;DHT22;3755;59.316;18.092;2022-12-10T02:44:47;-3.50;99.90
7427;DHT22;3755;59.316;18.092;2022-12-10T02:50:55;-3.60;99.90
7427;DHT22;3755;59.316;18.092;2022-12-10T02:53:42;-3.60;99.90
7427;DHT22;3755;59.316;18.092;2022-12-10T02:56:19;-3.60;99.90
7427;DHT22;3755;59.316;18.092;2022-12-10T02:59:26;-3.60;99.90
7427;DHT22;3755;59.316;18.092;2022-12-10T03:02:02;-3.60;99.90
7427;DHT22;3755;59.316;18.092;2022-12-10T03:04:48;-3.60;99.90
7427;DHT22;3755;59.316;18.092;2022-12-10T03:10:45;-3.70;99.90
7427;DHT22;3755;59.316;18.092;2022-12-10T03:13:27;-3.50;99.90
7427;DHT22;3755;59.316;18.092;2022-12-10T03:16:11;-3.50;99.90
7427;DHT22;3755;59.316;18.092;2022-12-10T03:19:01;-3.50;99.90
7427;DHT22;3755;59.316;18.092;2022-12-10T03:21:45;-3.40;99.90
7427;DHT22;3755;59.316;18.092;2022-12-10T03:24:52;-3.40;99.90
7427;DHT22;3755;59.316;18.092;2022-12-10T03:31:20;-3.70;99.90
7427;DHT22;3755;59.316;18.092;2022-12-10T03:34:08;-3.30;99.90
7427;DHT22;3755;59.316;18.092;2022-12-10T03:36:52;-3.20;99.90
7427;DHT22;3755;59.316;18.092;2022-12-10T03:39:27;-3.30;99.90
7427;DHT22;3755;59.316;18.092;2022-12-10T03:42:10;-3.30;99.90
7427;DHT22;3755;59.316;18.092;2022-12-10T03:44:50;-3.20;99.90
7427;DHT22;3755;59.316;18.092;2022-12-10T03:47:22;-3.20;99.90
7427;DHT22;3755;59.316;18.092;2022-12-10T03:49:51;-3.20;99.90
7427;DHT22;3755;59.316;18.092;2022-12-10T03:52:22;-3.10;99.90
7427;DHT22;3755;59.316;18.092;2022-12-10T03:54:50;-3.20;99.90
7427;DHT22;3755;59.316;18.092;2022-12-10T03:57:20;-3.10;99.90
7427;DHT22;3755;59.316;18.092;2022-12-10T03:59:49;-3.50;99.90
7427;DHT22;3755;59.316;18.092;2022-12-10T04:02:31;-3.10;99.90
7427;DHT22;3755;59.316;18.092;2022-12-10T04:05:06;-3.10;99.90
7427;DHT22;3755;59.316;18.092;2022-12-10T04:07:42;-3.10;99.90
7427;DHT22;3755;59.316;18.092;2022-12-10T04:10:16;-3.10;99.90
7427;DHT22;3755;59.316;18.092;2022-12-10T04:12:45;-3.10;99.90
7427;DHT22;3755;59.316;18.092;2022-12-10T04:15:38;-3.20;99.90
7427;DHT22;3755;59.316;18.092;2022-12-10T04:21:51;-3.10;99.90
7427;DHT22;3755;59.316;18.092;2022-12-10T04:24:37;-3.20;99.90
7427;DHT22;3755;59.316;18.092;2022-12-10T04:27:24;-3.10;99.90
7427;DHT22;3755;59.316;18.092;2022-12-10T04:30:10;-3.10;99.90
7427;DHT22;3755;59.316;18.092;2022-12-10T04:32:41;-3.10;99.90
7427;DHT22;3755;59.316;18.092;2022-12-10T04:35:22;-3.10;99.90
7427;DHT22;3755;59.316;18.092;2022-12-10T04:37:57;-3.10;99.90
7427;DHT22;3755;59.316;18.092;2022-12-10T04:40:39;-3.10;99.90
7427;DHT22;3755;59.316;18.092;2022-12-10T04:43:12;-3.10;99.90
7427;DHT22;3755;59.316;18.092;2022-12-10T04:45:55;-3.00;99.90
7427;DHT22;3755;59.316;18.092;2022-12-10T04:48:34;-3.00;99.90
7427;DHT22;3755;59.316;18.092;2022-12-10T04:51:16;-3.00;99.90
7427;DHT22;3755;59.316;18.092;2022-12-10T04:54:12;-2.90;99.90
7427;DHT22;3755;59.316;18.092;2022-12-10T04:56:53;-2.90;99.90
7427;DHT22;3755;59.316;18.092;2022-12-10T04:59:24;-2.90;99.90
7427;DHT22;3755;59.316;18.092;2022-12-10T05:01:54;-2.90;99.90
7427;DHT22;3755;59.316;18.092;2022-12-10T05:04:36;-2.90;99.90
7427;DHT22;3755;59.316;18.092;2022-12-10T05:07:17;-2.90;99.90
7427;DHT22;3755;59.316;18.092;2022-12-10T05:19:43;-3.10;99.90
7427;DHT22;3755;59.316;18.092;2022-12-10T05:22:35;-3.10;99.90
7427;DHT22;3755;59.316;18.092;2022-12-10T05:25:21;-3.10;99.90
7427;DHT22;3755;59.316;18.092;2022-12-10T05:28:02;-3.10;99.90
7427;DHT22;3755;59.316;18.092;2022-12-10T05:30:45;-3.20;99.90
7427;DHT22;3755;59.316;18.092;2022-12-10T05:33:28;-3.10;99.90
7427;DHT22;3755;59.316;18.092;2022-12-10T05:52:03;-3.00;99.90
7427;DHT22;3755;59.316;18.092;2022-12-10T05:54:45;-3.00;99.90
7427;DHT22;3755;59.316;18.092;2022-12-10T05:57:21;-3.00;99.90
7427;DHT22;3755;59.316;18.092;2022-12-10T05:59:56;-3.00;99.90
7427;DHT22;3755;59.316;18.092;2022-12-10T06:02:37;-2.90;99.90
7427;DHT22;3755;59.316;18.092;2022-12-10T06:05:14;-3.00;99.90
7427;DHT22;3755;59.316;18.092;2022-12-10T06:08:18;-3.00;99.90
7427;DHT22;3755;59.316;18.092;2022-12-10T06:11:03;-3.00;99.90
7427;DHT22;3755;59.316;18.092;2022-12-10T06:13:38;-2.90;99.90
7427;DHT22;3755;59.316;18.092;2022-12-10T06:16:46;-2.90;99.90
7427;DHT22;3755;59.316;18.092;2022-12-10T06:19:18;-3.00;99.90
7427;DHT22;3755;59.316;18.092;2022-12-10T06:22:05;-3.00;99.90
7427;DHT22;3755;59.316;18.092;2022-12-10T06:25:03;-3.00;99.90
7427;DHT22;3755;59.316;18.092;2022-12-10T06:27:46;-3.00;99.90
7427;DHT22;3755;59.316;18.092;2022-12-10T06:30:18;-3.00;99.90
7427;DHT22;3755;59.316;18.092;2022-12-10T06:32:59;-3.00;99.90
7427;DHT22;3755;59.316;18.092;2022-12-10T06:35:42;-3.80;99.90
7427;DHT22;3755;59.316;18.092;2022-12-10T06:38:11;-3.00;99.90
7427;DHT22;3755;59.316;18.092;2022-12-10T06:40:59;-3.10;99.90
7427;DHT22;3755;59.316;18.092;2022-12-10T06:44:06;-3.10;99.90
7427;DHT22;3755;59.316;18.092;2022-12-10T06:46:52;-3.10;99.90
7427;DHT22;3755;59.316;18.092;2022-12-10T06:49:33;-3.10;99.90
7427;DHT22;3755;59.316;18.092;2022-12-10T06:52:16;-3.10;99.90
7427;DHT22;3755;59.316;18.092;2022-12-10T06:54:58;-3.10;99.90
7427;DHT22;3755;59.316;18.092;2022-12-10T06:58:02;-3.10;99.90
7427;DHT22;3755;59.316;18.092;2022-12-10T07:00:44;-3.00;99.90
7427;DHT22;3755;59.316;18.092;2022-12-10T07:03:25;-3.00;99.90
7427;DHT22;3755;59.316;18.092;2022-12-10T07:06:12;-3.00;99.90
7427;DHT22;3755;59.316;18.092;2022-12-10T07:08:53;-3.00;99.90
7427;DHT22;3755;59.316;18.092;2022-12-10T07:12:06;-3.00;99.90
7427;DHT22;3755;59.316;18.092;2022-12-10T07:17:56;-3.00;99.90
7427;DHT22;3755;59.316;18.092;2022-12-10T07:20:32;-2.40;99.90
7427;DHT22;3755;59.316;18.092;2022-12-10T07:23:14;-3.00;99.90
7427;DHT22;3755;59.316;18.092;2022-12-10T07:25:57;-3.00;99.90
7427;DHT22;3755;59.316;18.092;2022-12-10T07:28:40;-2.90;99.90
7427;DHT22;3755;59.316;18.092;2022-12-10T07:31:23;-2.90;99.90
7427;DHT22;3755;59.316;18.092;2022-12-10T07:37:09;-2.90;99.90
7427;DHT22;3755;59.316;18.092;2022-12-10T07:39:52;-2.90;99.90
7427;DHT22;3755;59.316;18.092;2022-12-10T07:42:28;-2.60;99.90
7427;DHT22;3755;59.316;18.092;2022-12-10T07:45:01;-3.00;99.90
7427;DHT22;3755;59.316;18.092;2022-12-10T07:47:43;-3.00;99.90
7427;DHT22;3755;59.316;18.092;2022-12-10T07:50:24;-3.00;99.90
7427;DHT22;3755;59.316;18.092;2022-12-10T07:53:16;-3.00;99.90
7427;DHT22;3755;59.316;18.092;2022-12-10T07:56:05;-3.10;99.90
7427;DHT22;3755;59.316;18.092;2022-12-10T07:58:46;-3.10;99.90
7427;DHT22;3755;59.316;18.092;2022-12-10T08:01:27;-3.00;99.90
7427;DHT22;3755;59.316;18.092;2022-12-10T08:04:08;-2.90;99.90
7427;DHT22;3755;59.316;18.092;2022-12-10T08:06:54;-2.90;99.90
7427;DHT22;3755;59.316;18.092;2022-12-10T08:12:47;-2.90;99.90
7427;DHT22;3755;59.316;18.092;2022-12-10T08:15:30;-2.80;99.90
7427;DHT22;3755;59.316;18.092;2022-12-10T08:18:11;-2.80;99.90
7427;DHT22;3755;59.316;18.092;2022-12-10T08:20:50;-2.80;99.90
7427;DHT22;3755;59.316;18.092;2022-12-10T08:23:34;-2.80;99.90
7427;DHT22;3755;59.316;18.092;2022-12-10T08:26:20;-2.90;99.90
7427;DHT22;3755;59.316;18.092;2022-12-10T08:32:46;-3.70;99.90
7427;DHT22;3755;59.316;18.092;2022-12-10T08:35:29;-2.30;99.90
7427;DHT22;3755;59.316;18.092;2022-12-10T08:38:11;-2.70;99.90
7427;DHT22;3755;59.316;18.092;2022-12-10T08:40:55;-2.70;99.90
7427;DHT22;3755;59.316;18.092;2022-12-10T08:43:37;-2.70;99.90
7427;DHT22;3755;59.316;18.092;2022-12-10T08:46:11;-2.60;99.90
7427;DHT22;3755;59.316;18.092;2022-12-10T08:49:00;-2.60;99.90
7427;DHT22;3755;59.316;18.092;2022-12-10T08:51:38;-2.70;99.90
7427;DHT22;3755;59.316;18.092;2022-12-10T08:54:15;-3.10;99.90
7427;DHT22;3755;59.316;18.092;2022-12-10T08:56:57;-2.60;99.90
7427;DHT22;3755;59.316;18.092;2022-12-10T08:59:26;-2.50;99.90
7427;DHT22;3755;59.316;18.092;2022-12-10T09:02:10;-2.50;99.90
7427;DHT22;3755;59.316;18.092;2022-12-10T09:08:16;-2.50;99.90
7427;DHT22;3755;59.316;18.092;2022-12-10T09:11:03;-2.60;99.90
7427;DHT22;3755;59.316;18.092;2022-12-10T09:13:45;-2.60;99.90
7427;DHT22;3755;59.316;18.092;2022-12-10T09:16:30;-2.60;99.90
7427;DHT22;3755;59.316;18.092;2022-12-10T09:19:07;-2.60;99.90
7427;DHT22;3755;59.316;18.092;2022-12-10T09:21:50;-2.60;99.90
7427;DHT22;3755;59.316;18.092;2022-12-10T09:24:58;-2.10;99.90
7427;DHT22;3755;59.316;18.092;2022-12-10T09:27:41;-2.50;99.90
7427;DHT22;3755;59.316;18.092;2022-12-10T09:30:36;-2.50;99.90
7427;DHT22;3755;59.316;18.092;2022-12-10T09:33:19;-2.60;99.90
7427;DHT22;3755;59.316;18.092;2022-12-10T09:36:03;-2.50;99.90
7427;DHT22;3755;59.316;18.092;2022-12-10T09:38:46;-2.50;99.90
7427;DHT22;3755;59.316;18.092;2022-12-10T11:40:14;-2.40;99.90
7427;DHT22;3755;59.316;18.092;2022-12-10T11:43:41;-2.20;99.90
7427;DHT22;3755;59.316;18.092;2022-12-10T12:15:39;-2.00;99.90
7427;DHT22;3755;59.316;18.092;2022-12-10T12:18:33;-2.00;99.90
7427;DHT22;3755;59.316;18.092;2022-12-10T12:21:39;-2.00;99.90
7427;DHT22;3755;59.316;18.092;2022-12-10T12:24:29;-2.00;99.90
7427;DHT22;3755;59.316;18.092;2022-12-10T19:52:59;-3.60;99.90
7427;DHT22;3755;59.316;18.092;2022-12-10T19:59:10;-3.60;99.90
7427;DHT22;3755;59.316;18.092;2022-12-10T20:02:17;-3.70;99.90
7427;DHT22;3755;59.316;18.092;2022-12-10T20:05:04;-3.70;99.90
7427;DHT22;3755;59.316;18.092;2022-12-10T20:24:21;-3.80;99.90
7427;DHT22;3755;59.316;18.092;2022-12-10T20:27:08;-3.70;99.90
7427;DHT22;3755;59.316;18.092;2022-12-10T20:29:53;-4.90;99.90
7427;DHT22;3755;59.316;18.092;2022-12-10T20:32:55;-3.70;99.90
7427;DHT22;3755;59.316;18.092;2022-12-10T20:35:42;-3.70;99.90
7427;DHT22;3755;59.316;18.092;2022-12-10T23:45:17;-4.20;99.90
7427;DHT22;3755;59.316;18.092;2022-12-10T23:48:10;-4.30;99.90
7427;DHT22;3755;59.316;18.092;2022-12-10T23:50:57;-4.30;99.90
7427;DHT22;3755;59.316;18.092;2022-12-10T23:53:43;-4.20;99.90
7427;DHT22;3755;59.316;18.092;2022-12-10T23:56:41;-4.30;99.90
7427;DHT22;3755;59.316;18.092;2022-12-10T23:59:27;-4.20;99.90
